Time;durP1;ratioP1;P1;durP2;ratioP2;P2;SDS_P1;SDS_P2;PMS_P1;PMS_P2;Temp;Humidity;BMP_temperature;BMP_pressure;BME280_temperature;BME280_humidity;BME280_pressure;Samples;Min_cycle;Max_cycle;Signal;HPM_P1;HPM_P2
2022/01/02 00:02:15;;;;;;;27.58;13.15;;;4.70;99.90;;;;;;4955418;28;19948;-75
2022/01/02 00:04:47;;;;;;;27.42;13.45;;;4.60;99.90;;;;;;4971721;28;20081;-75
2022/01/02 00:07:15;;;;;;;26.33;14.10;;;4.60;99.90;;;;;;4973316;28;20027;-75
2022/01/02 00:09:46;;;;;;;27.23;13.82;;;4.50;99.90;;;;;;4972653;28;20460;-75
2022/01/02 00:12:13;;;;;;;;;;;4.50;99.90;;;;;;4973731;28;20376;-75
2022/01/02 00:14:47;;;;;;;24.42;13.85;;;4.40;99.90;;;;;;4972795;28;19917;-75
2022/01/02 00:17:16;;;;;;;23.65;12.57;;;4.40;99.90;;;;;;4973419;28;20110;-76
2022/01/02 00:19:51;;;;;;;26.23;13.05;;;4.40;99.90;;;;;;4972673;28;20041;-76
2022/01/02 00:22:19;;;;;;;22.20;12.48;;;4.40;99.90;;;;;;4973070;28;20026;-74
2022/01/02 00:24:45;;;;;;;19.83;11.70;;;4.40;99.90;;;;;;4972370;28;20089;-75
2022/01/02 00:27:14;;;;;;;20.35;11.20;;;4.30;99.90;;;;;;4973113;28;20081;-76
2022/01/02 00:29:41;;;;;;;21.25;12.25;;;4.30;99.90;;;;;;4971765;28;20027;-75
2022/01/02 00:32:09;;;;;;;22.00;12.10;;;4.20;99.90;;;;;;4972531;28;20396;-76
2022/01/02 00:34:36;;;;;;;22.35;13.13;;;4.20;99.90;;;;;;4972359;28;20031;-76
2022/01/02 00:37:03;;;;;;;23.55;13.07;;;4.20;99.90;;;;;;4955238;28;20054;-76
2022/01/02 00:39:29;;;;;;;25.55;12.40;;;4.10;99.90;;;;;;4972134;28;20030;-74
2022/01/02 00:42:11;;;;;;;29.58;14.88;;;4.10;99.90;;;;;;4972873;28;20437;-73
2022/01/02 00:44:58;;;;;;;26.40;13.27;;;4.10;99.90;;;;;;4972367;28;20026;-75
2022/01/02 00:47:28;;;;;;;26.30;11.98;;;4.10;99.90;;;;;;4972939;28;20066;-75
2022/01/02 00:50:10;;;;;;;21.77;12.02;;;4.10;99.90;;;;;;4973268;28;20102;-75
2022/01/02 00:52:41;;;;;;;24.35;10.80;;;4.10;99.90;;;;;;4971979;28;20026;-76
2022/01/02 00:55:10;;;;;;;19.63;10.77;;;4.10;99.90;;;;;;4972936;28;20039;-76
2022/01/02 00:57:41;;;;;;;21.27;11.40;;;4.20;99.90;;;;;;4970591;28;20456;-76
2022/01/02 01:00:13;;;;;;;20.20;11.07;;;4.20;99.90;;;;;;4971385;28;20115;-75
2022/01/02 01:02:50;;;;;;;19.23;10.73;;;4.10;99.90;;;;;;4971583;28;20106;-75
2022/01/02 01:05:24;;;;;;;21.80;11.13;;;4.10;99.90;;;;;;4972863;28;20476;-75
2022/01/02 01:07:56;;;;;;;19.45;10.40;;;4.00;99.90;;;;;;4971847;28;20101;-75
2022/01/02 01:10:25;;;;;;;22.42;11.73;;;4.10;99.90;;;;;;4976205;28;20034;-75
2022/01/02 01:12:53;;;;;;;19.27;10.90;;;4.10;99.90;;;;;;4975647;28;20039;-75
2022/01/02 01:15:21;;;;;;;19.73;10.60;;;4.00;99.90;;;;;;4976245;28;20093;-75
2022/01/02 01:17:48;;;;;;;17.38;9.80;;;4.00;99.90;;;;;;4975579;28;20023;-75
2022/01/02 01:20:14;;;;;;;17.73;9.30;;;3.90;99.90;;;;;;4976796;28;20523;-75
2022/01/02 01:22:41;;;;;;;23.27;11.05;;;3.90;99.90;;;;;;4975442;28;20034;-74
2022/01/02 01:25:15;;;;;;;25.27;11.85;;;3.90;99.90;;;;;;4976135;28;20038;-75
2022/01/02 01:27:41;;;;;;;23.98;12.18;;;3.90;99.90;;;;;;4958204;28;20116;-75
2022/01/02 01:30:09;;;;;;;22.30;12.35;;;4.00;99.90;;;;;;4975960;28;20050;-75
2022/01/02 01:32:35;;;;;;;17.52;10.38;;;4.00;99.90;;;;;;4975287;28;20066;-74
2022/01/02 01:35:02;;;;;;;19.88;10.90;;;3.90;99.90;;;;;;4975825;28;20042;-76
2022/01/02 01:37:28;;;;;;;21.85;11.35;;;3.90;99.90;;;;;;4976165;28;20452;-76
2022/01/02 01:39:54;;;;;;;20.98;10.25;;;3.90;99.90;;;;;;4975181;28;20057;-76
2022/01/02 01:42:30;;;;;;;17.98;9.98;;;3.90;99.90;;;;;;4975997;28;20038;-76
2022/01/02 01:47:40;;;;;;;17.63;9.75;;;3.90;99.90;;;;;;4975092;28;20050;-75
2022/01/02 01:50:06;;;;;;;20.58;10.48;;;3.90;99.90;;;;;;4975656;28;20031;-76
2022/01/02 01:52:32;;;;;;;18.05;11.00;;;3.80;99.90;;;;;;4975546;28;20027;-72
2022/01/02 01:54:58;;;;;;;21.00;11.75;;;3.80;99.90;;;;;;4957271;28;20038;-75
2022/01/02 01:57:23;;;;;;;22.38;11.95;;;3.80;99.90;;;;;;4975611;28;20035;-75
2022/01/02 01:59:49;;;;;;;27.02;13.52;;;3.80;99.90;;;;;;4974789;28;20030;-75
2022/01/02 02:02:15;;;;;;;24.20;12.57;;;3.80;99.90;;;;;;4975946;28;20033;-75
2022/01/02 02:04:42;;;;;;;20.52;12.38;;;3.80;99.90;;;;;;4974297;28;20027;-75
2022/01/02 02:07:08;;;;;;;20.73;11.52;;;3.80;99.90;;;;;;4975243;28;20050;-75
2022/01/02 02:09:49;;;;;;;20.92;12.00;;;3.80;99.90;;;;;;4975002;28;20449;-72
2022/01/02 02:12:15;;;;;;;20.75;10.90;;;3.70;99.90;;;;;;4975602;28;20023;-75
2022/01/02 02:14:41;;;;;;;20.27;10.85;;;3.70;99.90;;;;;;4974462;28;20057;-76
2022/01/02 02:17:06;;;;;;;20.48;10.85;;;3.70;99.90;;;;;;4975091;28;20035;-76
2022/01/02 02:19:32;;;;;;;19.02;10.38;;;3.60;99.90;;;;;;4975362;28;20030;-73
2022/01/02 02:21:58;;;;;;;16.98;10.05;;;3.60;99.90;;;;;;4973596;28;20385;-75
2022/01/02 02:24:24;;;;;;;18.23;10.68;;;3.60;99.90;;;;;;4974784;28;20031;-75
2022/01/02 02:26:49;;;;;;;21.45;10.85;;;3.50;99.90;;;;;;4974432;28;20045;-75
2022/01/02 02:29:15;;;;;;;17.17;9.63;;;3.50;99.90;;;;;;4974696;28;20031;-75
2022/01/02 02:31:41;;;;;;;21.13;11.35;;;3.50;99.90;;;;;;4956125;28;20081;-75
2022/01/02 02:34:07;;;;;;;18.75;9.98;;;3.50;99.90;;;;;;4974986;28;20031;-75
2022/01/02 02:36:33;;;;;;;19.42;10.73;;;3.40;99.90;;;;;;4974890;28;20042;-73
2022/01/02 02:38:59;;;;;;;21.73;12.35;;;3.40;99.90;;;;;;4974656;28;20105;-75
2022/01/02 02:41:30;;;;;;;24.08;11.50;;;3.40;99.90;;;;;;4974551;28;20027;-75
2022/01/02 02:44:05;;;;;;;20.45;11.02;;;3.40;99.90;;;;;;4973283;28;20300;-76
2022/01/02 02:49:15;;;;;;;20.35;11.30;;;3.40;99.90;;;;;;4974265;28;20117;-75
2022/01/02 02:54:22;;;;;;;20.48;11.20;;;3.30;99.90;;;;;;4973701;28;20023;-76
2022/01/02 02:57:03;;;;;;;18.83;10.48;;;3.20;99.90;;;;;;4956202;28;20034;-76
2022/01/02 02:59:32;;;;;;;18.10;10.43;;;3.20;99.90;;;;;;4957115;28;20114;-74
2022/01/02 03:01:58;;;;;;;15.25;9.77;;;3.10;99.90;;;;;;4973030;28;20456;-74
2022/01/02 03:04:24;;;;;;;19.38;10.48;;;3.10;99.90;;;;;;4974265;28;20048;-74
2022/01/02 03:06:51;;;;;;;21.15;11.10;;;3.00;99.90;;;;;;4973407;28;20042;-76
2022/01/02 03:09:30;;;;;;;24.23;12.27;;;2.90;99.90;;;;;;4973751;28;20045;-74
2022/01/02 03:11:55;;;;;;;19.95;11.90;;;2.90;99.90;;;;;;4973336;28;20058;-77
2022/01/02 03:14:21;;;;;;;23.95;12.25;;;2.90;99.90;;;;;;4974191;28;20074;-75
2022/01/02 03:16:46;;;;;;;18.60;11.45;;;2.90;99.90;;;;;;4973771;28;20495;-74
2022/01/02 03:19:12;;;;;;;23.70;12.13;;;2.90;99.90;;;;;;4974118;28;20026;-77
2022/01/02 03:21:38;;;;;;;21.10;11.68;;;2.90;99.90;;;;;;4973692;28;20042;-75
2022/01/02 03:24:03;;;;;;;23.63;12.07;;;2.90;99.90;;;;;;4973927;28;20461;-77
2022/01/02 03:26:29;;;;;;;22.02;12.68;;;2.90;99.90;;;;;;4973721;28;20034;-76
2022/01/02 03:28:55;;;;;;;20.23;10.80;;;3.00;99.90;;;;;;4972708;28;20033;-76
2022/01/02 03:31:20;;;;;;;20.60;11.10;;;2.90;99.90;;;;;;4973610;28;20026;-76
2022/01/02 03:33:46;;;;;;;22.25;11.52;;;2.90;99.90;;;;;;4972938;28;20030;-76
2022/01/02 03:36:12;;;;;;;25.00;13.23;;;2.90;99.90;;;;;;4973725;28;20058;-76
2022/01/02 03:38:37;;;;;;;23.98;12.98;;;2.90;99.90;;;;;;4972318;28;20027;-74
2022/01/02 03:41:03;;;;;;;22.77;11.15;;;2.90;99.90;;;;;;4973370;28;20029;-76
2022/01/02 03:43:29;;;;;;;19.67;11.57;;;2.90;99.90;;;;;;4972832;28;20031;-76
2022/01/02 03:45:55;;;;;;;23.05;12.50;;;2.90;99.90;;;;;;4972548;28;20464;-75
2022/01/02 03:48:20;;;;;;;20.40;11.23;;;2.90;99.90;;;;;;4973713;28;20034;-77
2022/01/02 03:50:46;;;;;;;21.38;11.68;;;2.90;99.90;;;;;;4972548;28;20038;-76
2022/01/02 03:53:12;;;;;;;19.67;11.45;;;2.80;99.90;;;;;;4973336;28;20031;-76
2022/01/02 03:55:39;;;;;;;20.23;11.82;;;2.80;99.90;;;;;;4955727;28;20066;-76
2022/01/02 03:58:05;;;;;;;23.08;12.00;;;2.70;99.90;;;;;;4973101;28;20048;-76
2022/01/02 04:00:31;;;;;;;21.75;12.18;;;2.70;99.90;;;;;;4973029;28;20472;-76
2022/01/02 04:02:56;;;;;;;20.67;12.07;;;2.80;99.90;;;;;;4972382;28;20098;-77
2022/01/02 04:05:22;;;;;;;20.58;12.68;;;2.70;99.90;;;;;;4972669;28;20459;-76
2022/01/02 04:07:48;;;;;;;20.90;11.00;;;2.70;99.90;;;;;;4972782;28;20029;-76
2022/01/02 04:10:16;;;;;;;19.65;11.30;;;2.70;99.90;;;;;;4973550;28;20026;-77
2022/01/02 04:12:42;;;;;;;20.33;11.77;;;2.70;99.90;;;;;;4972228;28;20396;-76
2022/01/02 04:15:09;;;;;;;19.70;10.77;;;2.60;99.90;;;;;;4973008;28;20062;-76
2022/01/02 04:17:36;;;;;;;17.98;10.48;;;2.60;99.90;;;;;;4973160;28;20101;-73
2022/01/02 04:20:04;;;;;;;20.95;10.48;;;2.70;99.90;;;;;;4973371;28;20042;-77
2022/01/02 04:22:30;;;;;;;20.67;10.77;;;2.70;99.90;;;;;;4973162;28;20082;-76
2022/01/02 04:24:55;;;;;;;20.20;10.00;;;2.70;99.90;;;;;;4972519;28;20023;-76
2022/01/02 04:27:22;;;;;;;19.52;10.70;;;2.80;99.90;;;;;;4972456;28;20027;-76
2022/01/02 04:29:47;;;;;;;16.90;9.20;;;2.80;99.90;;;;;;4972553;28;20081;-76
2022/01/02 04:32:14;;;;;;;24.35;10.27;;;3.00;99.90;;;;;;4972899;28;20419;-76
2022/01/02 04:34:40;;;;;;;24.40;12.77;;;3.00;99.90;;;;;;4954953;28;20432;-74
2022/01/02 04:37:06;;;;;;;21.75;11.88;;;3.10;99.90;;;;;;4973271;28;20174;-77
2022/01/02 04:39:33;;;;;;;21.10;11.02;;;3.10;99.90;;;;;;4972682;28;20117;-76
2022/01/02 04:41:59;;;;;;;19.88;10.60;;;3.20;99.90;;;;;;4972536;28;20057;-77
2022/01/02 04:44:25;;;;;;;21.70;11.13;;;3.10;99.90;;;;;;4973283;28;20023;-76
2022/01/02 04:46:51;;;;;;;18.65;10.70;;;3.00;99.90;;;;;;4976461;28;20046;-77
2022/01/02 04:49:16;;;;;;;19.27;10.55;;;3.00;99.90;;;;;;4976930;28;20038;-76
2022/01/02 04:51:42;;;;;;;19.42;10.57;;;3.00;99.90;;;;;;4975931;28;20428;-76
2022/01/02 04:54:07;;;;;;;18.70;10.25;;;3.00;99.90;;;;;;4976856;28;20102;-76
2022/01/02 04:56:33;;;;;;;22.75;9.80;;;3.00;99.90;;;;;;4976313;28;20066;-76
2022/01/02 04:58:59;;;;;;;19.17;10.02;;;3.10;99.90;;;;;;4975493;28;20041;-76
2022/01/02 05:01:24;;;;;;;17.52;9.85;;;3.10;99.90;;;;;;4976639;28;20451;-76
2022/01/02 05:03:50;;;;;;;17.15;9.70;;;3.10;99.90;;;;;;4976075;28;20089;-77
2022/01/02 05:06:15;;;;;;;19.40;9.85;;;3.20;99.90;;;;;;4958920;28;20042;-76
2022/01/02 05:08:45;;;;;;;16.73;9.48;;;3.30;99.90;;;;;;4975646;28;20034;-75
2022/01/02 05:11:11;;;;;;;14.67;9.30;;;3.30;99.90;;;;;;4976492;28;20031;-76
2022/01/02 05:13:37;;;;;;;15.95;9.15;;;3.40;99.90;;;;;;4976128;28;20274;-74
2022/01/02 05:16:03;;;;;;;16.45;8.40;;;3.40;99.90;;;;;;4975684;28;20062;-76
2022/01/02 05:18:28;;;;;;;15.13;8.60;;;3.40;99.90;;;;;;4976250;28;20033;-77
2022/01/02 05:20:54;;;;;;;15.30;9.27;;;3.40;99.90;;;;;;4975947;28;20023;-77
2022/01/02 05:23:21;;;;;;;13.23;9.10;;;3.40;99.90;;;;;;4976045;28;20042;-76
2022/01/02 05:25:47;;;;;;;14.70;8.77;;;3.40;99.90;;;;;;4975372;28;20039;-76
2022/01/02 05:28:13;;;;;;;14.38;8.65;;;3.50;99.90;;;;;;4976118;28;20085;-76
2022/01/02 05:30:40;;;;;;;12.07;8.07;;;3.50;99.90;;;;;;4975794;28;20162;-74
2022/01/02 05:33:06;;;;;;;12.15;7.95;;;3.50;99.90;;;;;;4975760;28;20023;-76
2022/01/02 05:35:32;;;;;;;12.10;8.27;;;3.50;99.90;;;;;;4976254;28;20027;-77
2022/01/02 05:37:59;;;;;;;12.88;8.57;;;3.50;99.90;;;;;;4975326;28;20149;-76
2022/01/02 05:40:25;;;;;;;14.55;8.55;;;3.50;99.90;;;;;;4975748;28;20439;-75
2022/01/02 05:42:51;;;;;;;13.07;8.18;;;3.60;99.90;;;;;;4974995;28;20034;-76
2022/01/02 05:45:16;;;;;;;13.52;8.38;;;3.60;99.90;;;;;;4975726;28;20042;-76
2022/01/02 05:47:42;;;;;;;14.05;8.23;;;3.60;99.90;;;;;;4975301;28;20485;-73
2022/01/02 05:50:08;;;;;;;14.20;8.60;;;3.60;99.90;;;;;;4975872;28;20416;-77
2022/01/02 05:52:34;;;;;;;12.63;8.55;;;3.60;99.90;;;;;;4975135;28;20023;-77
2022/01/02 05:55:00;;;;;;;16.00;9.43;;;3.60;99.90;;;;;;4975067;28;20577;-76
2022/01/02 05:57:26;;;;;;;16.55;8.68;;;3.60;99.90;;;;;;4975884;28;20023;-77
2022/01/02 05:59:51;;;;;;;14.57;8.57;;;3.60;99.90;;;;;;4974533;28;20380;-77
2022/01/02 06:02:17;;;;;;;15.55;8.73;;;3.60;99.90;;;;;;4975574;28;20026;-77
2022/01/02 06:04:43;;;;;;;12.45;8.73;;;3.50;99.90;;;;;;4974417;28;20031;-75
2022/01/02 06:07:09;;;;;;;13.10;8.65;;;3.60;99.90;;;;;;4975154;28;20035;-74
2022/01/02 06:09:35;;;;;;;13.50;8.35;;;3.50;99.90;;;;;;4975597;28;20106;-76
2022/01/02 06:12:00;;;;;;;18.65;8.82;;;3.50;99.90;;;;;;4974311;28;20102;-76
2022/01/02 06:14:26;;;;;;;14.43;8.90;;;3.50;99.90;;;;;;4974677;28;20053;-76
2022/01/02 06:16:52;;;;;;;14.77;9.02;;;3.50;99.90;;;;;;4974382;28;20078;-76
2022/01/02 06:19:17;;;;;;;14.52;8.65;;;3.60;99.90;;;;;;4975495;28;20449;-77
2022/01/02 06:21:43;;;;;;;15.35;8.38;;;3.60;99.90;;;;;;4974725;28;20030;-76
2022/01/02 06:24:08;;;;;;;11.68;7.85;;;3.60;99.90;;;;;;4975140;28;20027;-77
2022/01/02 06:26:34;;;;;;;13.43;7.93;;;3.60;99.90;;;;;;4975017;28;20117;-76
2022/01/02 06:29:03;;;;;;;12.18;8.50;;;3.60;99.90;;;;;;4973981;28;20039;-76
2022/01/02 06:31:29;;;;;;;14.70;8.07;;;3.50;99.90;;;;;;4974262;28;20065;-77
2022/01/02 06:33:55;;;;;;;12.43;7.50;;;3.60;99.90;;;;;;4970246;28;20477;-78
2022/01/02 06:36:21;;;;;;;12.73;7.95;;;3.50;99.90;;;;;;4973331;28;20089;-77
2022/01/02 06:38:46;;;;;;;12.05;7.97;;;3.50;99.90;;;;;;4964295;28;20171;-76
2022/01/02 06:41:12;;;;;;;13.65;7.78;;;3.50;99.90;;;;;;4963876;28;20023;-76
2022/01/02 06:43:39;;;;;;;17.80;8.75;;;3.50;99.90;;;;;;4965543;28;20486;-76
2022/01/02 06:46:05;;;;;;;14.15;8.40;;;3.50;99.90;;;;;;4969115;28;20034;-76
2022/01/02 06:48:31;;;;;;;14.48;9.48;;;3.50;99.90;;;;;;4966351;28;20114;-76
2022/01/02 06:50:57;;;;;;;13.80;9.07;;;3.50;99.90;;;;;;4967246;28;20102;-76
2022/01/02 06:53:22;;;;;;;13.98;8.20;;;3.50;99.90;;;;;;4967962;28;20073;-76
2022/01/02 06:55:48;;;;;;;14.32;9.15;;;3.50;99.90;;;;;;4964270;28;20436;-76
2022/01/02 06:58:14;;;;;;;13.52;9.25;;;3.50;99.90;;;;;;4965925;28;20018;-76
2022/01/02 07:00:41;;;;;;;13.98;9.02;;;3.50;99.90;;;;;;4967085;28;20118;-74
2022/01/02 07:03:07;;;;;;;13.13;8.43;;;3.50;99.90;;;;;;4967329;28;20049;-76
2022/01/02 07:05:33;;;;;;;16.70;9.45;;;3.50;99.90;;;;;;4965496;28;20035;-76
2022/01/02 07:07:58;;;;;;;14.20;9.23;;;3.40;99.90;;;;;;4964671;28;20122;-76
2022/01/02 07:10:24;;;;;;;14.88;8.98;;;3.50;99.90;;;;;;4965097;28;20019;-75
2022/01/02 07:12:50;;;;;;;12.20;8.38;;;3.50;99.90;;;;;;4966331;28;20042;-77
2022/01/02 07:15:16;;;;;;;15.10;9.52;;;3.50;99.90;;;;;;4967719;28;20054;-76
2022/01/02 07:17:42;;;;;;;13.20;8.40;;;3.50;99.90;;;;;;4960953;28;20030;-76
2022/01/02 07:20:09;;;;;;;14.35;9.10;;;3.50;99.90;;;;;;4966472;28;20019;-76
2022/01/02 07:22:36;;;;;;;15.18;8.38;;;3.60;99.90;;;;;;4965789;28;20106;-76
2022/01/02 07:25:02;;;;;;;19.73;9.70;;;3.60;99.90;;;;;;4967734;28;20497;-76
2022/01/02 07:27:28;;;;;;;16.13;9.60;;;3.60;99.90;;;;;;4966065;28;20027;-75
2022/01/02 07:29:56;;;;;;;14.02;9.40;;;3.70;99.90;;;;;;4964743;28;20366;-75
2022/01/02 07:32:22;;;;;;;14.50;8.65;;;3.70;99.90;;;;;;4964104;28;20039;-76
2022/01/02 07:34:48;;;;;;;13.07;9.05;;;3.80;99.90;;;;;;4966680;28;20031;-73
2022/01/02 07:37:14;;;;;;;12.77;8.00;;;3.80;99.90;;;;;;4966415;28;20035;-75
2022/01/02 07:39:39;;;;;;;14.52;9.60;;;3.80;99.90;;;;;;4964698;28;20030;-72
2022/01/02 07:42:05;;;;;;;12.45;8.40;;;3.80;99.90;;;;;;4966036;28;20018;-73
2022/01/02 07:44:31;;;;;;;15.43;9.57;;;3.80;99.90;;;;;;4956241;28;20035;-76
2022/01/02 07:46:56;;;;;;;16.75;9.07;;;3.80;99.90;;;;;;4957207;28;20039;-76
2022/01/02 07:49:22;;;;;;;13.15;8.77;;;3.80;99.90;;;;;;4958173;28;20023;-76
2022/01/02 07:51:48;;;;;;;13.43;8.48;;;3.80;99.90;;;;;;4957227;28;20023;-76
2022/01/02 07:54:13;;;;;;;12.52;8.32;;;3.80;99.90;;;;;;4965135;28;20023;-76
2022/01/02 07:56:40;;;;;;;12.07;7.97;;;3.80;99.90;;;;;;4964157;28;20023;-74
2022/01/02 07:59:06;;;;;;;16.00;8.80;;;3.90;99.90;;;;;;4952954;28;20015;-75
2022/01/02 08:01:32;;;;;;;14.38;8.43;;;3.90;99.90;;;;;;4964888;28;20015;-76
2022/01/02 08:03:58;;;;;;;12.32;8.32;;;3.90;99.90;;;;;;4965643;28;20030;-76
2022/01/02 08:06:23;;;;;;;13.52;8.77;;;3.90;99.90;;;;;;4964105;28;20038;-76
2022/01/02 08:08:49;;;;;;;10.65;7.20;;;4.00;99.90;;;;;;4966086;28;20113;-78
2022/01/02 08:11:16;;;;;;;12.68;7.38;;;4.00;99.90;;;;;;4966814;28;20023;-76
2022/01/02 08:13:46;;;;;;;14.63;8.60;;;4.00;99.90;;;;;;4965360;28;20039;-74
2022/01/02 08:16:12;;;;;;;12.97;8.60;;;4.10;99.90;;;;;;4971960;28;20034;-76
2022/01/02 08:18:38;;;;;;;13.70;8.57;;;4.10;99.90;;;;;;4970712;28;20297;-76
2022/01/02 08:21:04;;;;;;;14.88;8.73;;;4.20;99.90;;;;;;4970593;28;20057;-75
2022/01/02 08:23:30;;;;;;;16.25;9.20;;;4.30;99.90;;;;;;4971276;28;20129;-75
2022/01/02 08:25:56;;;;;;;13.02;8.02;;;4.40;99.90;;;;;;4970954;28;20051;-73
2022/01/02 08:28:22;;;;;;;11.20;7.00;;;4.50;99.90;;;;;;4972736;28;20027;-78
2022/01/02 08:30:48;;;;;;;10.63;6.82;;;4.60;99.90;;;;;;4972656;28;20106;-83
2022/01/02 08:33:14;;;;;;;10.55;7.30;;;4.80;99.90;;;;;;4972827;28;20023;-80
2022/01/02 08:35:41;;;;;;;11.00;7.80;;;5.10;99.90;;;;;;4972991;28;20035;-79
2022/01/02 08:38:07;;;;;;;11.57;7.75;;;5.20;99.90;;;;;;4972409;28;20035;-71
2022/01/02 08:40:33;;;;;;;10.80;7.68;;;5.40;99.90;;;;;;4972504;28;20035;-69
2022/01/02 08:42:59;;;;;;;13.43;7.65;;;5.50;99.90;;;;;;4972087;28;20031;-72
2022/01/02 08:45:24;;;;;;;9.45;7.05;;;5.60;99.90;;;;;;4970919;28;20396;-70
2022/01/02 08:47:50;;;;;;;11.82;7.40;;;5.60;99.90;;;;;;4970830;28;20436;-71
2022/01/02 08:50:16;;;;;;;12.70;7.63;;;5.70;99.90;;;;;;4972730;28;20042;-72
2022/01/02 08:52:41;;;;;;;13.48;7.85;;;5.80;99.90;;;;;;4955128;28;20584;-69
2022/01/02 08:55:07;;;;;;;16.17;8.35;;;5.90;99.90;;;;;;4971335;28;20469;-71
2022/01/02 08:57:33;;;;;;;11.65;8.35;;;5.90;99.90;;;;;;4972612;28;20383;-71
2022/01/02 08:59:59;;;;;;;14.00;8.23;;;6.10;99.90;;;;;;4979433;28;20039;-71
2022/01/02 09:02:24;;;;;;;12.75;8.18;;;6.20;99.90;;;;;;4971955;28;20038;-71
2022/01/02 09:04:50;;;;;;;11.68;7.40;;;6.30;99.90;;;;;;4971402;28;20030;-70
2022/01/02 09:07:16;;;;;;;10.95;7.55;;;6.40;99.90;;;;;;4967650;28;20039;-73
2022/01/02 09:09:42;;;;;;;10.57;7.43;;;6.40;99.90;;;;;;4969090;28;20019;-72
2022/01/02 09:12:08;;;;;;;11.13;7.45;;;6.40;99.90;;;;;;4971917;28;20027;-72
2022/01/02 09:14:35;;;;;;;14.40;9.27;;;6.50;99.90;;;;;;4972310;28;20085;-72
2022/01/02 09:17:00;;;;;;;13.93;7.95;;;6.60;99.90;;;;;;4969497;28;20031;-72
2022/01/02 09:19:26;;;;;;;11.13;7.95;;;6.80;99.90;;;;;;4972195;28;20030;-72
2022/01/02 09:21:52;;;;;;;11.70;8.00;;;6.90;99.90;;;;;;4972075;28;20033;-73
2022/01/02 09:24:17;;;;;;;11.20;7.60;;;7.00;99.90;;;;;;4972391;28;20031;-72
2022/01/02 09:26:43;;;;;;;11.48;7.90;;;7.10;99.90;;;;;;4971857;28;20057;-72
2022/01/02 09:29:09;;;;;;;11.10;8.15;;;7.30;99.90;;;;;;4964798;28;20097;-72
2022/01/02 09:31:35;;;;;;;11.75;7.13;;;7.40;99.90;;;;;;4976039;28;20058;-73
2022/01/02 09:34:01;;;;;;;10.77;7.10;;;7.40;99.90;;;;;;4977173;28;20031;-73
2022/01/02 09:36:27;;;;;;;10.70;7.30;;;7.50;99.90;;;;;;4976277;28;20034;-73
2022/01/02 09:38:54;;;;;;;9.93;7.43;;;7.60;99.90;;;;;;4975488;28;20127;-73
2022/01/02 09:41:20;;;;;;;10.50;7.05;;;7.60;99.90;;;;;;4975615;28;20484;-73
2022/01/02 09:43:47;;;;;;;10.88;7.45;;;7.70;99.90;;;;;;4973778;28;20458;-73
2022/01/02 09:46:22;;;;;;;9.38;6.93;;;7.80;99.90;;;;;;4974633;28;20130;-75
2022/01/02 09:48:49;;;;;;;12.15;6.85;;;7.80;99.90;;;;;;4974806;28;20074;-72
2022/01/02 09:51:21;;;;;;;10.05;7.22;;;7.90;99.90;;;;;;4975342;28;20114;-72
2022/01/02 09:53:47;;;;;;;10.75;7.55;;;7.90;99.90;;;;;;4974852;28;20472;-72
2022/01/02 09:56:15;;;;;;;12.15;8.13;;;8.00;99.90;;;;;;4975987;28;20090;-73
2022/01/02 09:58:43;;;;;;;11.10;7.95;;;8.10;99.90;;;;;;4976963;28;20026;-73
2022/01/02 10:01:23;;;;;;;9.93;7.15;;;8.10;99.90;;;;;;4977476;28;20038;-73
2022/01/02 10:03:55;;;;;;;10.55;7.68;;;8.20;99.90;;;;;;4976035;28;20102;-71
2022/01/02 10:06:36;;;;;;;11.20;7.72;;;8.20;99.90;;;;;;4975779;28;20041;-73
2022/01/02 10:09:02;;;;;;;8.13;6.45;;;8.30;99.90;;;;;;4974880;28;20026;-73
2022/01/02 10:11:27;;;;;;;9.40;6.30;;;8.20;99.90;;;;;;4975325;28;20429;-74
2022/01/02 10:13:56;;;;;;;10.60;6.82;;;8.30;99.90;;;;;;4973203;28;20049;-71
2022/01/02 10:16:33;;;;;;;9.65;6.53;;;8.40;99.90;;;;;;4973670;28;20038;-73
2022/01/02 10:19:29;;;;;;;10.07;7.00;;;8.40;99.90;;;;;;4974202;28;20054;-72
2022/01/02 10:22:02;;;;;;;11.02;7.32;;;8.40;99.90;;;;;;4974439;28;20026;-73
2022/01/02 10:24:42;;;;;;;10.65;7.60;;;8.40;99.90;;;;;;4975089;28;20383;-73
2022/01/02 10:27:26;;;;;;;12.00;7.90;;;8.40;99.90;;;;;;4974824;28;20120;-73
2022/01/02 10:29:57;;;;;;;14.93;8.18;;;8.40;99.90;;;;;;4974743;28;20031;-72
2022/01/02 10:32:41;;;;;;;12.65;8.07;;;8.30;99.90;;;;;;4973936;28;20459;-72
2022/01/02 10:35:23;;;;;;;10.45;7.28;;;8.30;99.90;;;;;;4974764;28;20543;-73
2022/01/02 10:37:52;;;;;;;9.50;7.28;;;8.30;99.90;;;;;;4972784;28;20050;-71
2022/01/02 10:40:38;;;;;;;10.02;6.70;;;8.30;99.90;;;;;;4973335;28;20031;-71
2022/01/02 10:43:07;;;;;;;9.93;7.13;;;8.30;99.90;;;;;;4973821;28;20031;-73
2022/01/02 10:45:50;;;;;;;9.95;7.22;;;8.20;99.90;;;;;;4974817;28;20490;-73
2022/01/02 10:48:18;;;;;;;11.23;7.85;;;8.20;99.90;;;;;;4975208;28;20022;-74
2022/01/02 10:50:59;;;;;;;11.77;7.70;;;8.20;99.90;;;;;;4973539;28;20026;-73
2022/01/02 10:53:25;;;;;;;11.07;8.10;;;8.20;99.90;;;;;;4975028;28;20089;-73
2022/01/02 10:55:50;;;;;;;11.52;7.53;;;8.20;99.90;;;;;;4974578;28;20117;-74
2022/01/02 10:58:16;;;;;;;13.50;8.43;;;8.20;99.90;;;;;;4975037;28;20022;-74
2022/01/02 11:00:43;;;;;;;11.27;7.97;;;8.20;99.90;;;;;;4974594;28;20037;-70
2022/01/02 11:03:09;;;;;;;12.18;8.13;;;8.30;99.90;;;;;;4974157;28;20066;-75
2022/01/02 11:05:39;;;;;;;12.10;8.52;;;8.40;99.90;;;;;;4974435;28;20039;-75
2022/01/02 11:08:06;;;;;;;;;;;8.60;99.90;;;;;;4974353;28;20033;-73
2022/01/02 11:10:35;;;;;;;8.85;6.28;;;8.80;99.90;;;;;;4974641;28;19906;-73
2022/01/02 11:13:03;;;;;;;14.98;7.68;;;9.10;99.90;;;;;;4973185;28;20114;-77
2022/01/02 11:15:30;;;;;;;13.93;8.25;;;9.20;99.90;;;;;;4974455;28;20045;-73
2022/01/02 11:17:56;;;;;;;11.38;7.38;;;9.40;99.90;;;;;;4972259;28;20023;-73
2022/01/02 11:20:25;;;;;;;11.95;8.40;;;9.40;99.90;;;;;;4973650;28;20042;-73
2022/01/02 11:23:00;;;;;;;15.18;8.63;;;9.30;99.90;;;;;;4973595;28;20054;-73
2022/01/02 11:25:46;;;;;;;13.25;9.02;;;9.30;99.90;;;;;;4974447;28;20044;-73
2022/01/02 11:28:35;;;;;;;11.77;8.50;;;9.20;99.90;;;;;;4974146;28;20058;-72
2022/01/02 11:31:03;;;;;;;12.95;9.18;;;9.20;99.90;;;;;;4973368;28;20468;-74
2022/01/02 11:33:31;;;;;;;14.25;8.85;;;9.30;99.90;;;;;;4974550;28;20465;-73
2022/01/02 11:35:59;;;;;;;14.43;9.95;;;9.30;99.90;;;;;;4973349;28;20041;-72
2022/01/02 11:38:26;;;;;;;13.52;9.90;;;9.30;99.90;;;;;;4974009;28;20082;-73
2022/01/02 11:41:01;;;;;;;14.95;9.85;;;9.30;99.90;;;;;;4973430;28;20031;-77
2022/01/02 11:43:35;;;;;;;14.48;9.55;;;9.20;99.90;;;;;;4974314;28;20483;-76
2022/01/02 11:46:17;;;;;;;12.90;8.95;;;9.20;99.90;;;;;;4973256;28;20093;-77
2022/01/02 11:49:03;;;;;;;17.50;9.77;;;9.10;99.90;;;;;;4980985;28;20026;-77
2022/01/02 11:51:55;;;;;;;15.30;10.10;;;9.10;99.90;;;;;;4993166;28;20031;-76
2022/01/02 11:54:35;;;;;;;11.75;7.68;;;9.10;99.90;;;;;;4985960;28;20172;-78
2022/01/02 11:57:23;;;;;;;16.70;8.43;;;9.10;99.90;;;;;;4975139;28;20038;-75
2022/01/02 11:59:48;;;;;;;12.27;6.95;;;9.20;99.90;;;;;;4980252;28;20142;-71
2022/01/02 12:02:23;;;;;;;16.15;8.55;;;9.30;99.90;;;;;;4993244;28;20105;-73
2022/01/02 12:04:58;;;;;;;14.63;9.23;;;9.40;99.90;;;;;;4992877;28;20022;-71
2022/01/02 12:07:35;;;;;;;17.38;10.00;;;9.60;99.90;;;;;;4992879;28;20041;-73
2022/01/02 12:10:16;;;;;;;15.55;10.38;;;9.80;99.90;;;;;;4992849;28;20023;-73
2022/01/02 12:13:00;;;;;;;15.57;8.95;;;9.90;99.90;;;;;;4992989;28;20096;-73
2022/01/02 12:15:31;;;;;;;17.10;10.45;;;10.00;99.90;;;;;;4993045;28;20039;-72
2022/01/02 12:18:29;;;;;;;9.52;6.50;;;10.10;99.90;;;;;;4975323;28;20423;-72
2022/01/02 12:21:00;;;;;;;6.40;1.52;;;10.20;99.90;;;;;;4991822;28;20559;-73
2022/01/02 12:23:32;;;;;;;2.17;1.15;;;10.80;99.70;;;;;;4986468;28;20022;-74
2022/01/02 12:26:05;;;;;;;3.03;1.08;;;11.50;95.40;;;;;;4972100;28;20558;-71
2022/01/02 12:28:57;;;;;;;1.73;1.00;;;;;;;;;;4973077;28;20486;-72
2022/01/02 12:31:30;;;;;;;2.72;0.90;;;13.00;84.50;;;;;;4972785;28;20035;-72
2022/01/02 12:34:05;;;;;;;1.48;1.23;;;13.10;83.40;;;;;;4972364;28;20027;-72
2022/01/02 12:36:31;;;;;;;1.27;0.90;;;13.40;80.10;;;;;;4972605;28;20038;-73
2022/01/02 12:39:03;;;;;;;1.80;1.00;;;13.70;76.10;;;;;;4971971;28;20394;-72
2022/01/02 12:41:32;;;;;;;1.63;0.98;;;14.00;75.20;;;;;;4972633;28;20030;-73
2022/01/02 12:44:08;;;;;;;2.55;1.40;;;14.20;74.10;;;;;;4972215;28;20022;-72
2022/01/02 12:46:34;;;;;;;2.55;1.42;;;14.40;72.70;;;;;;4972476;28;20130;-72
2022/01/02 12:49:01;;;;;;;1.10;1.00;;;14.60;72.10;;;;;;4981300;28;20031;-73
2022/01/02 12:51:33;;;;;;;3.50;1.42;;;14.60;72.80;;;;;;4992106;28;20404;-74
2022/01/02 12:54:10;;;;;;;2.15;1.25;;;14.70;71.90;;;;;;4991591;28;20081;-75
2022/01/02 12:56:41;;;;;;;1.58;1.10;;;14.80;72.00;;;;;;4992241;28;20494;-73
2022/01/02 12:59:30;;;;;;;1.60;1.00;;;14.90;71.00;;;;;;4991363;28;20568;-73
2022/01/02 13:01:56;;;;;;;2.88;1.20;;;15.00;71.50;;;;;;4991421;28;20476;-73